Main page
METAR-TAF:

METAR-TAF

Airports :

Ostend–Bruges International Airport

Ostend, Belgium

latitude: 51-12N, longitude: 002-52E, elevation: 4 m

Current weather observation

The report was made 32 minutes ago, at 19:20 UTC
Wind 7 kt from the South/Southeast
Temperature 16°C
Humidity 82%
Pressure 1011 hPa
Visibility 10 km or more
Few clouds at a height of 1600 ft

METAR: EBOS 251920Z 15007KT 9999 FEW016 16/13 Q1011 NOSIG

Time: 21:52 (19:52 UTC)

Forecast

The report was made 2 hours and 52 minutes ago, at 17:00 UTC
Forecast valid from 25 at 18 UTC to 26 at 24 UTC
Wind 6 kt from the South
Visibility 10 km or more
Few clouds at a height of 3000 ft

TAF: EBOS 251700Z 2518/2624 17006KT 9999 FEW030

Weather observations and forecasts of more than 4000 airports (METAR and TAF reports).

The available stations are represented by yellow and red dots on the map.

Hover mouse over dot to see the name of the station.

Then click to see weather observations and forecasts.

To change the map : click on the green buttons with a black cross to zoom in, on the green button with a dash to zoom out, or on the green arrows for adjacent maps.


METAR-TAF: